Rutledge, MO (63563)

4:00 PM CDT on July 25, 2014 (GMT -0500)
Kirksville Regional (KIRK) Elev 965 ft | 40.10 °N, 92.55 °W | Change Station

Current weather conditions updated 5 minutes ago

Overcast
Overcast
74 °F
Feels Like 74 °F
N
15
Wind Variable Wind from SSE

Tomorrow is forecast to be Much Warmer than today. Showers and thunderstorms late.

Today
High -- | Low -- °F
--% Chance of Precip.
Yesterday
High -- | Low -- °F
Precip. -- in
5:59 AM 8:29 PM
Waning Crescent, 1% visible
Pressure 29.86 in
Visibility 10.0 miles
Clouds Overcast 2700 ft
Dew Point 66 °F
Humidity 76%
Rainfall 0.11 in
Snow Depth Not available.
UV 2 out of 12
Pollen 5.60 out of 12
Air Quality Not available.
Flu Activity Not available.
METAR KIRK 252055Z AUTO 15013KT 10SM OVC027 23/19 A2987 RMK AO2 SLP111 T02330189 56033

More Conditions Fewer Conditions

Pressure 29.86 in
Visibility 10.0 miles
Clouds Overcast 2700 ft
Dew Point 66 °F
Humidity 76%
Rainfall 0.11 in
Snow Depth Not available.
UV 2 out of 12
Pollen 5.60 out of 12
Air Quality Not available.
Flu Activity Not available.
METAR KIRK 252055Z AUTO 15013KT 10SM OVC027 23/19 A2987 RMK AO2 SLP111 T02330189 56033

More Conditions Fewer Conditions

10-Day Weather Forecast

Almanac

Astronomy

Jul. 25, 2014 Rise Set
Actual Time 5:59 AM CDT 8:29 PM CDT
Civil Twilight 5:28 AM CDT 9:00 PM CDT
Nautical Twilight 4:49 AM CDT 9:39 PM CDT
Astronomical Twilight 4:06 AM CDT 10:22 PM CDT
Moon 4:59 AM CDT 7:26 PM CDT
Length of Visible Light 15h 32m
Length of Day
14h 30m
Tomorrow will be 1m 47s shorter.
Waning Crescent, 1% of the Moon is Illuminated
Today
Waning Crescent
Jul 26
New
Aug 3
First Quarter
Aug 10
Full
Aug 17
Last Quarter

Today's Extremes

State Highs State Lows

Community

WunderPhotos

Upload Photos

1,737,402 photos uploaded!

Nearby

Snow Depth

Station Depth Elevation
No new snow has been reported.

Earthquake Activity

City Distance Mag. Time & Date
No recent earthquake activity has been reported nearby.
Minimum magnitude displayed is 2.5.

Coastal Water Temperatures

Place Temperature
No Stations Reporting

Nearby Weather Stations

There are no personal weather stations in this area.